sensor_id;sensor_type;location;lat;lon;timestamp;P1;durP1;ratioP1;P2;durP2;ratioP2
20069;SDS011;10195;50.868;4.382;2022-07-05T00:01:14;6.05;;;2.67;;
20069;SDS011;10195;50.868;4.382;2022-07-05T00:03:40;4.28;;;2.70;;
20069;SDS011;10195;50.868;4.382;2022-07-05T00:06:06;5.00;;;2.65;;
20069;SDS011;10195;50.868;4.382;2022-07-05T00:08:34;5.82;;;2.35;;
20069;SDS011;10195;50.868;4.382;2022-07-05T00:11:08;7.03;;;2.97;;
20069;SDS011;10195;50.868;4.382;2022-07-05T00:13:33;12.48;;;3.13;;
20069;SDS011;10195;50.868;4.382;2022-07-05T00:16:02;8.98;;;2.67;;
20069;SDS011;10195;50.868;4.382;2022-07-05T00:18:28;7.18;;;2.90;;
20069;SDS011;10195;50.868;4.382;2022-07-05T00:21:00;4.32;;;2.95;;
20069;SDS011;10195;50.868;4.382;2022-07-05T00:23:28;7.93;;;2.85;;
20069;SDS011;10195;50.868;4.382;2022-07-05T00:25:54;5.38;;;2.90;;
20069;SDS011;10195;50.868;4.382;2022-07-05T00:28:23;8.20;;;3.10;;
20069;SDS011;10195;50.868;4.382;2022-07-05T00:30:49;5.47;;;2.97;;
20069;SDS011;10195;50.868;4.382;2022-07-05T00:33:14;10.52;;;3.05;;
20069;SDS011;10195;50.868;4.382;2022-07-05T00:35:40;8.48;;;3.47;;
20069;SDS011;10195;50.868;4.382;2022-07-05T00:38:09;9.70;;;3.47;;
20069;SDS011;10195;50.868;4.382;2022-07-05T00:40:35;7.57;;;3.40;;
20069;SDS011;10195;50.868;4.382;2022-07-05T00:43:00;7.97;;;2.83;;
20069;SDS011;10195;50.868;4.382;2022-07-05T00:45:26;6.10;;;3.00;;
20069;SDS011;10195;50.868;4.382;2022-07-05T00:47:58;7.78;;;2.88;;
20069;SDS011;10195;50.868;4.382;2022-07-05T00:50:23;7.25;;;3.20;;
20069;SDS011;10195;50.868;4.382;2022-07-05T00:52:53;12.30;;;3.03;;
20069;SDS011;10195;50.868;4.382;2022-07-05T00:55:20;8.68;;;3.05;;
20069;SDS011;10195;50.868;4.382;2022-07-05T00:57:49;6.35;;;3.35;;
20069;SDS011;10195;50.868;4.382;2022-07-05T01:00:27;8.85;;;3.03;;
20069;SDS011;10195;50.868;4.382;2022-07-05T01:02:56;6.47;;;3.50;;
20069;SDS011;10195;50.868;4.382;2022-07-05T01:05:22;9.27;;;3.00;;
20069;SDS011;10195;50.868;4.382;2022-07-05T01:07:51;7.20;;;3.05;;
20069;SDS011;10195;50.868;4.382;2022-07-05T01:10:19;8.10;;;2.87;;
20069;SDS011;10195;50.868;4.382;2022-07-05T01:12:45;6.80;;;3.20;;
20069;SDS011;10195;50.868;4.382;2022-07-05T01:15:11;11.23;;;3.15;;
20069;SDS011;10195;50.868;4.382;2022-07-05T01:17:37;13.07;;;3.10;;
20069;SDS011;10195;50.868;4.382;2022-07-05T01:20:06;9.95;;;3.10;;
20069;SDS011;10195;50.868;4.382;2022-07-05T01:22:38;7.10;;;3.40;;
20069;SDS011;10195;50.868;4.382;2022-07-05T01:25:22;9.27;;;3.30;;
20069;SDS011;10195;50.868;4.382;2022-07-05T01:27:49;10.97;;;3.67;;
20069;SDS011;10195;50.868;4.382;2022-07-05T01:30:19;8.60;;;3.50;;
20069;SDS011;10195;50.868;4.382;2022-07-05T01:32:45;7.30;;;3.30;;
20069;SDS011;10195;50.868;4.382;2022-07-05T01:35:11;7.60;;;3.13;;
20069;SDS011;10195;50.868;4.382;2022-07-05T01:37:38;13.40;;;3.47;;
20069;SDS011;10195;50.868;4.382;2022-07-05T01:40:05;7.23;;;3.23;;
20069;SDS011;10195;50.868;4.382;2022-07-05T01:42:32;7.17;;;3.30;;
20069;SDS011;10195;50.868;4.382;2022-07-05T01:45:01;9.00;;;3.33;;
20069;SDS011;10195;50.868;4.382;2022-07-05T01:47:40;8.43;;;3.30;;
20069;SDS011;10195;50.868;4.382;2022-07-05T01:50:14;9.07;;;2.88;;
20069;SDS011;10195;50.868;4.382;2022-07-05T01:52:44;5.90;;;3.47;;
20069;SDS011;10195;50.868;4.382;2022-07-05T01:55:13;6.83;;;3.10;;
20069;SDS011;10195;50.868;4.382;2022-07-05T01:57:38;10.33;;;3.30;;
20069;SDS011;10195;50.868;4.382;2022-07-05T02:00:04;7.47;;;2.90;;
20069;SDS011;10195;50.868;4.382;2022-07-05T02:02:33;6.40;;;3.20;;
20069;SDS011;10195;50.868;4.382;2022-07-05T02:05:00;7.53;;;3.23;;
20069;SDS011;10195;50.868;4.382;2022-07-05T02:07:25;10.10;;;3.30;;
20069;SDS011;10195;50.868;4.382;2022-07-05T02:09:51;10.20;;;3.00;;
20069;SDS011;10195;50.868;4.382;2022-07-05T02:12:16;8.47;;;3.10;;
20069;SDS011;10195;50.868;4.382;2022-07-05T02:14:42;6.60;;;3.40;;
20069;SDS011;10195;50.868;4.382;2022-07-05T02:17:08;11.73;;;3.10;;
20069;SDS011;10195;50.868;4.382;2022-07-05T02:19:34;6.40;;;3.45;;
20069;SDS011;10195;50.868;4.382;2022-07-05T02:22:06;6.70;;;3.70;;
20069;SDS011;10195;50.868;4.382;2022-07-05T02:24:32;6.40;;;3.30;;
20069;SDS011;10195;50.868;4.382;2022-07-05T02:26:58;4.93;;;3.27;;
20069;SDS011;10195;50.868;4.382;2022-07-05T02:29:24;11.43;;;3.90;;
20069;SDS011;10195;50.868;4.382;2022-07-05T02:31:50;5.93;;;3.70;;
20069;SDS011;10195;50.868;4.382;2022-07-05T02:34:15;8.85;;;4.07;;
20069;SDS011;10195;50.868;4.382;2022-07-05T02:36:41;6.33;;;3.90;;
20069;SDS011;10195;50.868;4.382;2022-07-05T02:39:06;8.63;;;4.07;;
20069;SDS011;10195;50.868;4.382;2022-07-05T02:41:32;7.93;;;4.00;;
20069;SDS011;10195;50.868;4.382;2022-07-05T02:43:58;7.37;;;3.67;;
20069;SDS011;10195;50.868;4.382;2022-07-05T02:46:23;6.70;;;3.70;;
20069;SDS011;10195;50.868;4.382;2022-07-05T02:48:50;6.97;;;4.20;;
20069;SDS011;10195;50.868;4.382;2022-07-05T02:51:17;7.37;;;3.87;;
20069;SDS011;10195;50.868;4.382;2022-07-05T02:53:42;6.50;;;4.00;;
20069;SDS011;10195;50.868;4.382;2022-07-05T02:56:08;7.63;;;4.00;;
20069;SDS011;10195;50.868;4.382;2022-07-05T02:58:33;9.17;;;3.97;;
20069;SDS011;10195;50.868;4.382;2022-07-05T03:00:59;10.40;;;4.50;;
20069;SDS011;10195;50.868;4.382;2022-07-05T03:03:25;9.33;;;4.43;;
20069;SDS011;10195;50.868;4.382;2022-07-05T03:05:53;8.17;;;4.20;;
20069;SDS011;10195;50.868;4.382;2022-07-05T03:08:19;11.93;;;4.70;;
20069;SDS011;10195;50.868;4.382;2022-07-05T03:10:45;11.05;;;4.78;;
20069;SDS011;10195;50.868;4.382;2022-07-05T03:13:10;9.97;;;4.23;;
20069;SDS011;10195;50.868;4.382;2022-07-05T03:15:36;7.43;;;4.40;;
20069;SDS011;10195;50.868;4.382;2022-07-05T03:18:02;8.37;;;4.50;;
20069;SDS011;10195;50.868;4.382;2022-07-05T03:20:27;10.83;;;4.33;;
20069;SDS011;10195;50.868;4.382;2022-07-05T03:22:53;8.60;;;4.30;;
20069;SDS011;10195;50.868;4.382;2022-07-05T03:25:19;9.57;;;4.80;;
20069;SDS011;10195;50.868;4.382;2022-07-05T03:27:45;12.57;;;4.87;;
20069;SDS011;10195;50.868;4.382;2022-07-05T03:30:11;11.43;;;4.63;;
20069;SDS011;10195;50.868;4.382;2022-07-05T03:32:37;7.17;;;4.83;;
20069;SDS011;10195;50.868;4.382;2022-07-05T03:35:02;9.20;;;5.23;;
20069;SDS011;10195;50.868;4.382;2022-07-05T03:37:28;12.77;;;4.93;;
20069;SDS011;10195;50.868;4.382;2022-07-05T03:39:54;12.67;;;5.00;;
20069;SDS011;10195;50.868;4.382;2022-07-05T03:42:19;7.07;;;4.57;;
20069;SDS011;10195;50.868;4.382;2022-07-05T03:44:45;11.83;;;5.43;;
20069;SDS011;10195;50.868;4.382;2022-07-05T03:47:11;8.43;;;5.03;;
20069;SDS011;10195;50.868;4.382;2022-07-05T03:49:37;9.03;;;5.20;;
20069;SDS011;10195;50.868;4.382;2022-07-05T03:52:03;6.63;;;5.00;;
20069;SDS011;10195;50.868;4.382;2022-07-05T03:54:29;7.50;;;5.10;;
20069;SDS011;10195;50.868;4.382;2022-07-05T03:56:54;9.50;;;5.20;;
20069;SDS011;10195;50.868;4.382;2022-07-05T03:59:20;7.03;;;5.30;;
20069;SDS011;10195;50.868;4.382;2022-07-05T04:01:46;9.27;;;5.53;;
20069;SDS011;10195;50.868;4.382;2022-07-05T04:04:12;10.20;;;5.83;;
20069;SDS011;10195;50.868;4.382;2022-07-05T04:06:37;9.03;;;5.50;;
20069;SDS011;10195;50.868;4.382;2022-07-05T04:09:03;16.50;;;6.00;;
20069;SDS011;10195;50.868;4.382;2022-07-05T04:11:29;8.03;;;5.40;;
20069;SDS011;10195;50.868;4.382;2022-07-05T04:13:55;8.33;;;5.33;;
20069;SDS011;10195;50.868;4.382;2022-07-05T04:16:20;10.47;;;5.93;;
20069;SDS011;10195;50.868;4.382;2022-07-05T04:18:47;10.03;;;5.97;;
20069;SDS011;10195;50.868;4.382;2022-07-05T04:21:12;12.30;;;6.15;;
20069;SDS011;10195;50.868;4.382;2022-07-05T04:23:38;14.63;;;5.67;;
20069;SDS011;10195;50.868;4.382;2022-07-05T04:26:03;12.73;;;6.40;;
20069;SDS011;10195;50.868;4.382;2022-07-05T04:28:29;10.63;;;6.10;;
20069;SDS011;10195;50.868;4.382;2022-07-05T04:30:55;11.57;;;5.60;;
20069;SDS011;10195;50.868;4.382;2022-07-05T04:33:21;10.90;;;5.33;;
20069;SDS011;10195;50.868;4.382;2022-07-05T04:35:47;8.40;;;5.20;;
20069;SDS011;10195;50.868;4.382;2022-07-05T04:38:13;9.77;;;5.30;;
20069;SDS011;10195;50.868;4.382;2022-07-05T04:40:39;8.13;;;4.72;;
20069;SDS011;10195;50.868;4.382;2022-07-05T04:43:05;10.27;;;5.10;;
20069;SDS011;10195;50.868;4.382;2022-07-05T04:45:31;8.67;;;5.30;;
20069;SDS011;10195;50.868;4.382;2022-07-05T04:47:57;8.17;;;5.33;;
20069;SDS011;10195;50.868;4.382;2022-07-05T04:50:23;10.83;;;5.10;;
20069;SDS011;10195;50.868;4.382;2022-07-05T04:52:49;12.03;;;5.10;;
20069;SDS011;10195;50.868;4.382;2022-07-05T04:55:14;10.80;;;5.07;;
20069;SDS011;10195;50.868;4.382;2022-07-05T04:57:40;10.10;;;4.87;;
20069;SDS011;10195;50.868;4.382;2022-07-05T05:00:07;10.33;;;4.93;;
20069;SDS011;10195;50.868;4.382;2022-07-05T05:02:34;7.53;;;4.90;;
20069;SDS011;10195;50.868;4.382;2022-07-05T05:05:00;7.93;;;4.47;;
20069;SDS011;10195;50.868;4.382;2022-07-05T05:07:26;11.33;;;4.43;;
20069;SDS011;10195;50.868;4.382;2022-07-05T05:09:52;7.43;;;4.00;;
20069;SDS011;10195;50.868;4.382;2022-07-05T05:12:18;8.60;;;4.50;;
20069;SDS011;10195;50.868;4.382;2022-07-05T05:14:43;9.05;;;4.20;;
20069;SDS011;10195;50.868;4.382;2022-07-05T05:17:09;9.90;;;4.45;;
20069;SDS011;10195;50.868;4.382;2022-07-05T05:19:34;6.75;;;3.80;;
20069;SDS011;10195;50.868;4.382;2022-07-05T05:22:00;7.43;;;3.67;;
20069;SDS011;10195;50.868;4.382;2022-07-05T05:24:26;6.60;;;3.77;;
20069;SDS011;10195;50.868;4.382;2022-07-05T05:26:51;11.32;;;3.42;;
20069;SDS011;10195;50.868;4.382;2022-07-05T05:29:18;19.65;;;3.90;;
20069;SDS011;10195;50.868;4.382;2022-07-05T05:31:45;6.55;;;3.80;;
20069;SDS011;10195;50.868;4.382;2022-07-05T05:34:11;10.48;;;4.00;;
20069;SDS011;10195;50.868;4.382;2022-07-05T05:36:37;10.90;;;3.80;;
20069;SDS011;10195;50.868;4.382;2022-07-05T05:39:02;8.13;;;3.03;;
20069;SDS011;10195;50.868;4.382;2022-07-05T05:41:28;10.00;;;3.40;;
20069;SDS011;10195;50.868;4.382;2022-07-05T05:43:54;10.30;;;3.15;;
20069;SDS011;10195;50.868;4.382;2022-07-05T05:46:19;6.28;;;2.80;;
20069;SDS011;10195;50.868;4.382;2022-07-05T05:48:45;8.73;;;2.90;;
20069;SDS011;10195;50.868;4.382;2022-07-05T05:51:10;7.82;;;2.95;;
20069;SDS011;10195;50.868;4.382;2022-07-05T05:53:36;6.72;;;2.63;;
20069;SDS011;10195;50.868;4.382;2022-07-05T05:56:02;6.68;;;2.95;;
20069;SDS011;10195;50.868;4.382;2022-07-05T05:58:27;9.32;;;2.70;;
20069;SDS011;10195;50.868;4.382;2022-07-05T06:00:53;10.50;;;2.90;;
20069;SDS011;10195;50.868;4.382;2022-07-05T06:03:19;9.00;;;2.72;;
20069;SDS011;10195;50.868;4.382;2022-07-05T06:05:49;14.65;;;3.03;;
20069;SDS011;10195;50.868;4.382;2022-07-05T06:08:15;10.25;;;2.85;;
20069;SDS011;10195;50.868;4.382;2022-07-05T06:10:42;14.95;;;3.13;;
20069;SDS011;10195;50.868;4.382;2022-07-05T06:13:09;9.77;;;3.03;;
20069;SDS011;10195;50.868;4.382;2022-07-05T06:15:36;9.07;;;3.15;;
20069;SDS011;10195;50.868;4.382;2022-07-05T06:18:03;13.18;;;3.22;;
20069;SDS011;10195;50.868;4.382;2022-07-05T06:20:30;12.80;;;3.10;;
20069;SDS011;10195;50.868;4.382;2022-07-05T06:22:58;12.23;;;3.15;;
20069;SDS011;10195;50.868;4.382;2022-07-05T06:25:24;12.25;;;3.20;;
20069;SDS011;10195;50.868;4.382;2022-07-05T06:27:53;23.40;;;3.55;;
20069;SDS011;10195;50.868;4.382;2022-07-05T06:30:21;11.05;;;3.00;;
20069;SDS011;10195;50.868;4.382;2022-07-05T06:32:48;17.27;;;3.03;;
20069;SDS011;10195;50.868;4.382;2022-07-05T06:35:15;10.98;;;3.15;;
20069;SDS011;10195;50.868;4.382;2022-07-05T06:40:08;9.55;;;2.60;;
20069;SDS011;10195;50.868;4.382;2022-07-05T06:42:35;13.13;;;3.40;;
20069;SDS011;10195;50.868;4.382;2022-07-05T06:45:01;18.90;;;2.80;;
20069;SDS011;10195;50.868;4.382;2022-07-05T06:47:26;6.13;;;2.60;;
20069;SDS011;10195;50.868;4.382;2022-07-05T06:49:52;10.70;;;2.60;;
20069;SDS011;10195;50.868;4.382;2022-07-05T06:52:17;7.95;;;2.95;;
20069;SDS011;10195;50.868;4.382;2022-07-05T06:54:43;6.22;;;2.38;;
20069;SDS011;10195;50.868;4.382;2022-07-05T06:57:09;13.38;;;2.85;;
20069;SDS011;10195;50.868;4.382;2022-07-05T06:59:35;8.93;;;3.10;;
20069;SDS011;10195;50.868;4.382;2022-07-05T07:02:01;11.75;;;2.78;;
20069;SDS011;10195;50.868;4.382;2022-07-05T07:04:27;11.40;;;3.10;;
20069;SDS011;10195;50.868;4.382;2022-07-05T07:06:52;14.13;;;3.33;;
20069;SDS011;10195;50.868;4.382;2022-07-05T07:09:18;10.55;;;2.70;;
20069;SDS011;10195;50.868;4.382;2022-07-05T07:11:45;11.75;;;3.10;;
20069;SDS011;10195;50.868;4.382;2022-07-05T07:14:11;10.65;;;2.53;;
20069;SDS011;10195;50.868;4.382;2022-07-05T07:16:37;11.23;;;2.85;;
20069;SDS011;10195;50.868;4.382;2022-07-05T07:19:02;9.52;;;2.55;;
20069;SDS011;10195;50.868;4.382;2022-07-05T07:21:28;10.13;;;2.88;;
20069;SDS011;10195;50.868;4.382;2022-07-05T07:23:54;10.20;;;2.85;;
20069;SDS011;10195;50.868;4.382;2022-07-05T07:26:19;9.73;;;2.80;;
20069;SDS011;10195;50.868;4.382;2022-07-05T07:28:45;9.93;;;3.17;;
20069;SDS011;10195;50.868;4.382;2022-07-05T07:31:10;10.52;;;2.70;;
20069;SDS011;10195;50.868;4.382;2022-07-05T07:33:36;15.07;;;3.55;;
20069;SDS011;10195;50.868;4.382;2022-07-05T07:36:02;13.23;;;2.90;;
20069;SDS011;10195;50.868;4.382;2022-07-05T07:38:28;11.85;;;3.13;;
20069;SDS011;10195;50.868;4.382;2022-07-05T07:40:53;14.00;;;3.10;;
20069;SDS011;10195;50.868;4.382;2022-07-05T07:43:19;14.75;;;3.53;;
20069;SDS011;10195;50.868;4.382;2022-07-05T07:45:45;10.20;;;2.90;;
20069;SDS011;10195;50.868;4.382;2022-07-05T07:48:10;11.77;;;3.03;;
20069;SDS011;10195;50.868;4.382;2022-07-05T07:50:36;10.05;;;2.88;;
20069;SDS011;10195;50.868;4.382;2022-07-05T07:53:02;7.70;;;3.33;;
20069;SDS011;10195;50.868;4.382;2022-07-05T07:55:27;12.63;;;3.28;;
20069;SDS011;10195;50.868;4.382;2022-07-05T07:57:54;13.68;;;3.90;;
20069;SDS011;10195;50.868;4.382;2022-07-05T08:00:20;13.50;;;3.38;;
20069;SDS011;10195;50.868;4.382;2022-07-05T08:02:45;14.45;;;5.38;;
20069;SDS011;10195;50.868;4.382;2022-07-05T08:05:11;14.60;;;3.17;;
20069;SDS011;10195;50.868;4.382;2022-07-05T08:07:37;13.05;;;3.58;;
20069;SDS011;10195;50.868;4.382;2022-07-05T08:10:03;11.98;;;3.70;;
20069;SDS011;10195;50.868;4.382;2022-07-05T08:12:29;13.75;;;3.40;;
20069;SDS011;10195;50.868;4.382;2022-07-05T08:14:55;8.18;;;3.80;;
20069;SDS011;10195;50.868;4.382;2022-07-05T08:17:21;11.38;;;3.67;;
20069;SDS011;10195;50.868;4.382;2022-07-05T08:19:46;17.13;;;4.43;;
20069;SDS011;10195;50.868;4.382;2022-07-05T08:22:31;14.50;;;3.90;;
20069;SDS011;10195;50.868;4.382;2022-07-05T08:24:57;9.98;;;4.10;;
20069;SDS011;10195;50.868;4.382;2022-07-05T08:27:23;9.02;;;3.47;;
20069;SDS011;10195;50.868;4.382;2022-07-05T08:29:49;11.00;;;4.13;;
20069;SDS011;10195;50.868;4.382;2022-07-05T08:32:15;9.95;;;3.65;;
20069;SDS011;10195;50.868;4.382;2022-07-05T08:34:41;14.57;;;4.10;;
20069;SDS011;10195;50.868;4.382;2022-07-05T08:37:07;12.95;;;4.22;;
20069;SDS011;10195;50.868;4.382;2022-07-05T08:39:33;9.15;;;4.47;;
20069;SDS011;10195;50.868;4.382;2022-07-05T08:41:59;16.88;;;3.83;;
20069;SDS011;10195;50.868;4.382;2022-07-05T08:44:26;9.65;;;3.80;;
20069;SDS011;10195;50.868;4.382;2022-07-05T08:46:53;14.43;;;6.03;;
20069;SDS011;10195;50.868;4.382;2022-07-05T08:49:26;18.00;;;7.05;;
20069;SDS011;10195;50.868;4.382;2022-07-05T08:51:53;19.08;;;7.07;;
20069;SDS011;10195;50.868;4.382;2022-07-05T08:54:20;15.82;;;6.07;;
20069;SDS011;10195;50.868;4.382;2022-07-05T08:56:48;9.20;;;4.70;;
20069;SDS011;10195;50.868;4.382;2022-07-05T08:59:14;10.38;;;4.68;;
20069;SDS011;10195;50.868;4.382;2022-07-05T09:01:40;11.90;;;3.85;;
20069;SDS011;10195;50.868;4.382;2022-07-05T09:04:09;10.40;;;3.63;;
20069;SDS011;10195;50.868;4.382;2022-07-05T09:06:38;11.20;;;4.22;;
20069;SDS011;10195;50.868;4.382;2022-07-05T09:09:04;9.38;;;3.25;;
20069;SDS011;10195;50.868;4.382;2022-07-05T09:11:41;7.85;;;3.17;;
20069;SDS011;10195;50.868;4.382;2022-07-05T09:14:17;10.02;;;2.97;;
20069;SDS011;10195;50.868;4.382;2022-07-05T09:16:52;10.88;;;3.38;;
20069;SDS011;10195;50.868;4.382;2022-07-05T09:19:18;10.60;;;2.97;;
20069;SDS011;10195;50.868;4.382;2022-07-05T09:21:44;9.90;;;2.78;;
20069;SDS011;10195;50.868;4.382;2022-07-05T09:24:11;11.30;;;3.45;;
20069;SDS011;10195;50.868;4.382;2022-07-05T09:26:41;10.65;;;3.20;;
20069;SDS011;10195;50.868;4.382;2022-07-05T09:29:14;7.10;;;3.03;;
20069;SDS011;10195;50.868;4.382;2022-07-05T09:31:46;10.98;;;3.22;;
20069;SDS011;10195;50.868;4.382;2022-07-05T09:34:17;10.98;;;3.75;;
20069;SDS011;10195;50.868;4.382;2022-07-05T09:36:50;7.82;;;3.47;;
20069;SDS011;10195;50.868;4.382;2022-07-05T09:44:52;10.45;;;3.70;;
20069;SDS011;10195;50.868;4.382;2022-07-05T09:47:23;9.73;;;3.83;;
20069;SDS011;10195;50.868;4.382;2022-07-05T09:49:52;12.48;;;3.92;;
20069;SDS011;10195;50.868;4.382;2022-07-05T09:55:08;9.18;;;2.88;;
20069;SDS011;10195;50.868;4.382;2022-07-05T09:57:41;9.50;;;2.72;;
20069;SDS011;10195;50.868;4.382;2022-07-05T10:00:12;4.60;;;2.55;;
20069;SDS011;10195;50.868;4.382;2022-07-05T10:02:40;9.60;;;3.03;;
20069;SDS011;10195;50.868;4.382;2022-07-05T10:05:09;13.40;;;3.97;;
20069;SDS011;10195;50.868;4.382;2022-07-05T10:07:35;11.05;;;2.70;;
20069;SDS011;10195;50.868;4.382;2022-07-05T10:10:02;6.68;;;3.47;;
20069;SDS011;10195;50.868;4.382;2022-07-05T10:12:27;12.10;;;3.47;;
20069;SDS011;10195;50.868;4.382;2022-07-05T10:14:55;8.77;;;3.33;;
20069;SDS011;10195;50.868;4.382;2022-07-05T10:17:24;12.88;;;3.83;;
20069;SDS011;10195;50.868;4.382;2022-07-05T10:19:52;13.95;;;3.42;;
20069;SDS011;10195;50.868;4.382;2022-07-05T10:22:20;7.93;;;3.55;;
20069;SDS011;10195;50.868;4.382;2022-07-05T10:24:47;10.55;;;3.30;;
20069;SDS011;10195;50.868;4.382;2022-07-05T10:27:13;16.23;;;3.00;;
20069;SDS011;10195;50.868;4.382;2022-07-05T10:29:40;8.73;;;2.35;;
20069;SDS011;10195;50.868;4.382;2022-07-05T10:32:07;8.13;;;2.95;;
20069;SDS011;10195;50.868;4.382;2022-07-05T10:34:34;6.60;;;2.28;;
20069;SDS011;10195;50.868;4.382;2022-07-05T10:37:00;5.82;;;2.53;;
20069;SDS011;10195;50.868;4.382;2022-07-05T10:39:26;7.47;;;2.28;;
20069;SDS011;10195;50.868;4.382;2022-07-05T10:41:53;9.40;;;2.90;;
20069;SDS011;10195;50.868;4.382;2022-07-05T10:44:26;4.90;;;2.10;;
20069;SDS011;10195;50.868;4.382;2022-07-05T10:47:08;8.85;;;2.30;;
20069;SDS011;10195;50.868;4.382;2022-07-05T10:49:36;7.03;;;2.20;;
20069;SDS011;10195;50.868;4.382;2022-07-05T10:52:02;7.38;;;3.13;;
20069;SDS011;10195;50.868;4.382;2022-07-05T10:54:29;12.63;;;2.90;;
20069;SDS011;10195;50.868;4.382;2022-07-05T11:00:07;6.75;;;2.17;;
20069;SDS011;10195;50.868;4.382;2022-07-05T11:02:34;4.15;;;2.08;;
20069;SDS011;10195;50.868;4.382;2022-07-05T11:05:01;4.75;;;1.95;;
20069;SDS011;10195;50.868;4.382;2022-07-05T11:10:28;4.13;;;1.50;;
20069;SDS011;10195;50.868;4.382;2022-07-05T11:12:56;4.53;;;1.60;;
20069;SDS011;10195;50.868;4.382;2022-07-05T11:15:22;11.07;;;1.80;;
20069;SDS011;10195;50.868;4.382;2022-07-05T11:17:47;10.30;;;1.88;;
20069;SDS011;10195;50.868;4.382;2022-07-05T11:20:14;5.28;;;1.70;;
20069;SDS011;10195;50.868;4.382;2022-07-05T11:23:05;5.65;;;1.95;;
20069;SDS011;10195;50.868;4.382;2022-07-05T11:25:37;7.28;;;2.05;;
20069;SDS011;10195;50.868;4.382;2022-07-05T11:30:46;4.85;;;1.90;;
20069;SDS011;10195;50.868;4.382;2022-07-05T11:33:32;7.65;;;2.08;;
20069;SDS011;10195;50.868;4.382;2022-07-05T11:36:01;5.10;;;1.83;;
20069;SDS011;10195;50.868;4.382;2022-07-05T11:38:29;3.83;;;1.48;;
20069;SDS011;10195;50.868;4.382;2022-07-05T11:40:56;5.82;;;2.22;;
20069;SDS011;10195;50.868;4.382;2022-07-05T11:43:39;6.25;;;1.55;;
20069;SDS011;10195;50.868;4.382;2022-07-05T11:46:06;7.72;;;2.30;;
20069;SDS011;10195;50.868;4.382;2022-07-05T11:48:32;7.50;;;1.55;;
20069;SDS011;10195;50.868;4.382;2022-07-05T11:50:57;5.63;;;1.80;;
20069;SDS011;10195;50.868;4.382;2022-07-05T11:53:25;6.20;;;1.60;;
20069;SDS011;10195;50.868;4.382;2022-07-05T11:55:57;6.78;;;1.92;;
20069;SDS011;10195;50.868;4.382;2022-07-05T11:58:29;5.53;;;1.90;;
20069;SDS011;10195;50.868;4.382;2022-07-05T12:00:56;5.25;;;1.70;;
20069;SDS011;10195;50.868;4.382;2022-07-05T12:03:22;4.07;;;1.85;;
20069;SDS011;10195;50.868;4.382;2022-07-05T12:05:48;7.50;;;1.70;;
20069;SDS011;10195;50.868;4.382;2022-07-05T12:08:21;6.03;;;1.90;;
20069;SDS011;10195;50.868;4.382;2022-07-05T12:10:47;3.85;;;1.65;;
20069;SDS011;10195;50.868;4.382;2022-07-05T12:13:41;9.35;;;2.15;;
20069;SDS011;10195;50.868;4.382;2022-07-05T12:16:13;3.50;;;1.92;;
20069;SDS011;10195;50.868;4.382;2022-07-05T12:18:49;8.73;;;2.13;;
20069;SDS011;10195;50.868;4.382;2022-07-05T12:21:16;7.40;;;2.78;;
20069;SDS011;10195;50.868;4.382;2022-07-05T12:23:42;4.85;;;2.20;;
20069;SDS011;10195;50.868;4.382;2022-07-05T12:26:10;6.45;;;2.80;;
20069;SDS011;10195;50.868;4.382;2022-07-05T12:28:40;11.75;;;2.63;;
20069;SDS011;10195;50.868;4.382;2022-07-05T12:33:42;13.43;;;3.03;;
20069;SDS011;10195;50.868;4.382;2022-07-05T12:36:15;7.00;;;3.00;;
20069;SDS011;10195;50.868;4.382;2022-07-05T12:38:45;9.68;;;2.40;;
20069;SDS011;10195;50.868;4.382;2022-07-05T12:41:11;4.70;;;2.38;;
20069;SDS011;10195;50.868;4.382;2022-07-05T12:43:52;7.03;;;2.58;;
20069;SDS011;10195;50.868;4.382;2022-07-05T12:46:36;6.85;;;2.72;;
20069;SDS011;10195;50.868;4.382;2022-07-05T12:49:02;4.65;;;2.13;;
20069;SDS011;10195;50.868;4.382;2022-07-05T12:51:35;7.50;;;2.20;;
20069;SDS011;10195;50.868;4.382;2022-07-05T12:54:05;6.30;;;2.47;;
20069;SDS011;10195;50.868;4.382;2022-07-05T12:56:51;6.65;;;2.53;;
20069;SDS011;10195;50.868;4.382;2022-07-05T12:59:36;4.80;;;2.08;;
20069;SDS011;10195;50.868;4.382;2022-07-05T13:02:03;3.65;;;2.00;;
20069;SDS011;10195;50.868;4.382;2022-07-05T13:04:29;5.97;;;2.40;;
20069;SDS011;10195;50.868;4.382;2022-07-05T13:06:59;3.10;;;1.88;;
20069;SDS011;10195;50.868;4.382;2022-07-05T13:14:40;3.88;;;1.80;;
20069;SDS011;10195;50.868;4.382;2022-07-05T13:17:07;5.40;;;2.40;;
20069;SDS011;10195;50.868;4.382;2022-07-05T13:19:34;5.93;;;2.55;;
20069;SDS011;10195;50.868;4.382;2022-07-05T13:22:01;6.95;;;1.80;;
20069;SDS011;10195;50.868;4.382;2022-07-05T13:24:27;10.68;;;1.60;;
20069;SDS011;10195;50.868;4.382;2022-07-05T13:26:53;4.30;;;1.88;;
20069;SDS011;10195;50.868;4.382;2022-07-05T13:29:19;10.43;;;2.08;;
20069;SDS011;10195;50.868;4.382;2022-07-05T13:31:45;3.25;;;1.55;;
20069;SDS011;10195;50.868;4.382;2022-07-05T13:34:11;2.92;;;1.50;;
20069;SDS011;10195;50.868;4.382;2022-07-05T13:36:36;3.97;;;1.40;;
20069;SDS011;10195;50.868;4.382;2022-07-05T13:39:02;7.35;;;1.63;;
20069;SDS011;10195;50.868;4.382;2022-07-05T13:41:28;7.95;;;1.80;;
20069;SDS011;10195;50.868;4.382;2022-07-05T13:43:54;14.02;;;1.40;;
20069;SDS011;10195;50.868;4.382;2022-07-05T13:46:19;5.78;;;1.85;;
20069;SDS011;10195;50.868;4.382;2022-07-05T13:48:45;6.82;;;1.75;;
20069;SDS011;10195;50.868;4.382;2022-07-05T13:51:11;6.40;;;1.55;;
20069;SDS011;10195;50.868;4.382;2022-07-05T13:53:36;5.65;;;1.70;;
20069;SDS011;10195;50.868;4.382;2022-07-05T13:56:03;8.18;;;1.98;;
20069;SDS011;10195;50.868;4.382;2022-07-05T13:58:29;6.13;;;2.03;;
20069;SDS011;10195;50.868;4.382;2022-07-05T14:00:55;6.53;;;1.95;;
20069;SDS011;10195;50.868;4.382;2022-07-05T14:03:20;5.68;;;2.05;;
20069;SDS011;10195;50.868;4.382;2022-07-05T14:05:46;9.38;;;1.85;;
20069;SDS011;10195;50.868;4.382;2022-07-05T14:08:12;3.85;;;1.48;;
20069;SDS011;10195;50.868;4.382;2022-07-05T14:10:38;5.65;;;1.67;;
20069;SDS011;10195;50.868;4.382;2022-07-05T14:13:04;4.00;;;1.70;;
20069;SDS011;10195;50.868;4.382;2022-07-05T14:15:30;4.82;;;1.55;;
20069;SDS011;10195;50.868;4.382;2022-07-05T14:17:56;4.20;;;1.60;;
20069;SDS011;10195;50.868;4.382;2022-07-05T14:20:24;4.57;;;1.42;;
20069;SDS011;10195;50.868;4.382;2022-07-05T14:22:50;7.57;;;1.45;;
20069;SDS011;10195;50.868;4.382;2022-07-05T14:25:16;3.33;;;1.40;;
20069;SDS011;10195;50.868;4.382;2022-07-05T14:27:41;11.85;;;1.63;;
20069;SDS011;10195;50.868;4.382;2022-07-05T14:30:08;5.55;;;1.52;;
20069;SDS011;10195;50.868;4.382;2022-07-05T14:32:35;7.22;;;1.48;;
20069;SDS011;10195;50.868;4.382;2022-07-05T14:35:01;4.13;;;1.50;;
20069;SDS011;10195;50.868;4.382;2022-07-05T14:37:27;3.42;;;1.52;;
20069;SDS011;10195;50.868;4.382;2022-07-05T14:39:53;3.03;;;1.17;;
20069;SDS011;10195;50.868;4.382;2022-07-05T14:42:18;2.45;;;1.15;;
20069;SDS011;10195;50.868;4.382;2022-07-05T14:44:44;5.55;;;1.70;;
20069;SDS011;10195;50.868;4.382;2022-07-05T14:47:09;4.53;;;1.40;;
20069;SDS011;10195;50.868;4.382;2022-07-05T14:49:35;2.80;;;1.17;;
20069;SDS011;10195;50.868;4.382;2022-07-05T14:52:01;2.78;;;1.00;;
20069;SDS011;10195;50.868;4.382;2022-07-05T14:54:26;5.63;;;1.20;;
20069;SDS011;10195;50.868;4.382;2022-07-05T14:56:52;7.45;;;1.45;;
20069;SDS011;10195;50.868;4.382;2022-07-05T14:59:18;3.80;;;1.40;;
20069;SDS011;10195;50.868;4.382;2022-07-05T15:01:44;2.60;;;1.25;;
20069;SDS011;10195;50.868;4.382;2022-07-05T15:04:09;3.40;;;1.40;;
20069;SDS011;10195;50.868;4.382;2022-07-05T15:06:35;3.65;;;1.20;;
20069;SDS011;10195;50.868;4.382;2022-07-05T15:09:01;6.90;;;1.80;;
20069;SDS011;10195;50.868;4.382;2022-07-05T15:11:26;3.50;;;1.52;;